Time;durP1;ratioP1;P1;durP2;ratioP2;P2;SDS_P1;SDS_P2;PMS_P1;PMS_P2;Temp;Humidity;BMP_temperature;BMP_pressure;BME280_temperature;BME280_humidity;BME280_pressure;Samples;Min_cycle;Max_cycle;Signal;HPM_P1;HPM_P2
2023/01/24 00:00:37;;;;;;;10.18;5.07;;;;;;;0.68;100.00;102161.28;5087932;28;20075;-76
2023/01/24 00:03:03;;;;;;;12.35;6.90;;;;;;;0.48;100.00;102126.34;5086261;28;20480;-76
2023/01/24 00:05:29;;;;;;;12.65;6.70;;;;;;;0.73;100.00;102166.78;5087679;28;20152;-76
2023/01/24 00:07:54;;;;;;;13.27;4.93;;;;;;;0.43;100.00;102122.56;5087346;28;20048;-76
2023/01/24 00:10:20;;;;;;;8.52;4.10;;;;;;;0.31;100.00;102160.44;5084289;28;20492;-75
2023/01/24 00:12:45;;;;;;;10.88;5.03;;;;;;;0.16;100.00;102076.00;5081591;28;20051;-75
2023/01/24 00:15:11;;;;;;;14.52;8.20;;;;;;;0.59;100.00;102142.59;5085958;28;20051;-77
2023/01/24 00:17:36;;;;;;;20.58;8.18;;;;;;;0.70;100.00;102174.28;5083461;28;20046;-74
2023/01/24 00:20:05;;;;;;;11.05;6.53;;;;;;;0.56;100.00;102196.59;5085756;28;20035;-76
2023/01/24 00:22:31;;;;;;;10.43;5.43;;;;;;;0.69;100.00;102180.25;5086081;28;20067;-75
2023/01/24 00:24:57;;;;;;;14.90;8.45;;;;;;;0.59;100.00;102163.25;5085810;28;20070;-76
2023/01/24 00:27:22;;;;;;;13.35;7.85;;;;;;;0.16;100.00;102072.50;5081197;28;20496;-75
2023/01/24 00:29:47;;;;;;;10.02;6.75;;;;;;;-0.70;100.00;102007.19;5085906;28;20476;-76
2023/01/24 00:32:13;;;;;;;13.10;6.85;;;;;;;0.44;100.00;102175.09;5089071;28;20036;-77
2023/01/24 00:34:38;;;;;;;14.50;6.68;;;;;;;0.49;100.00;102141.06;5086023;28;20177;-76
2023/01/24 00:37:04;;;;;;;9.98;5.30;;;;;;;-0.24;100.00;102006.13;5086800;28;20540;-77
2023/01/24 00:39:29;;;;;;;12.93;7.53;;;;;;;-0.96;100.00;101889.38;5084315;28;20499;-77
2023/01/24 00:41:55;;;;;;;11.52;7.07;;;;;;;0.46;100.00;102168.34;5077722;28;20492;-77
2023/01/24 00:44:20;;;;;;;11.95;5.72;;;;;;;-0.03;100.00;102024.78;5087934;28;20024;-77
2023/01/24 00:46:46;;;;;;;17.45;7.75;;;;;;;0.09;100.00;102047.94;5086963;28;20105;-76
2023/01/24 00:49:11;;;;;;;30.75;9.98;;;;;;;0.75;100.00;102154.81;5083117;28;20614;-76
2023/01/24 00:51:37;;;;;;;12.65;7.38;;;;;;;0.53;100.00;102158.53;5081986;28;20044;-76
2023/01/24 00:54:02;;;;;;;14.88;7.63;;;;;;;-0.12;100.00;102005.19;5084686;28;20056;-76
2023/01/24 00:56:28;;;;;;;11.45;6.22;;;;;;;0.65;100.00;102170.50;5076439;28;20097;-76
2023/01/24 00:58:53;;;;;;;15.85;7.40;;;;;;;-0.20;100.00;102012.41;5080590;28;20131;-77
2023/01/24 01:01:19;;;;;;;16.27;6.60;;;;;;;-0.21;100.00;102020.94;5081256;28;20048;-76
2023/01/24 01:03:44;;;;;;;8.45;6.75;;;;;;;0.76;100.00;102162.69;5087318;28;20040;-78
2023/01/24 01:06:13;;;;;;;9.52;5.40;;;;;;;-0.09;100.00;102024.38;5083087;28;20052;-77
2023/01/24 01:08:39;;;;;;;12.10;7.00;;;;;;;-0.14;100.00;102018.00;5077011;28;20067;-77
2023/01/24 01:11:05;;;;;;;10.38;7.70;;;;;;;-0.25;100.00;102027.56;5084094;28;20563;-77
2023/01/24 01:13:31;;;;;;;15.02;6.97;;;;;;;-0.63;100.00;102032.63;5084860;28;20067;-77
2023/01/24 01:16:06;;;;;;;12.73;7.50;;;;;;;-0.16;100.00;102026.44;5086295;28;20119;-76
2023/01/24 01:18:33;;;;;;;14.75;8.25;;;;;;;0.18;100.00;102171.59;5082808;28;20036;-76
2023/01/24 01:20:58;;;;;;;12.93;7.72;;;;;;;-0.52;100.00;101984.38;5078952;28;20123;-77
2023/01/24 01:23:24;;;;;;;11.93;8.50;;;;;;;-0.30;100.00;102023.78;5086209;28;20567;-76
2023/01/24 01:25:50;;;;;;;10.80;7.03;;;;;;;0.55;100.00;102140.56;5079919;28;20415;-76
2023/01/24 01:28:16;;;;;;;15.05;7.47;;;;;;;-0.11;100.00;102160.09;5088021;28;20052;-76
2023/01/24 01:30:41;;;;;;;13.50;7.70;;;;;;;-0.88;100.00;102024.78;5085204;28;20055;-76
2023/01/24 01:33:06;;;;;;;13.43;7.78;;;;;;;0.46;100.00;102146.00;5085299;28;20082;-75
2023/01/24 01:35:32;;;;;;;11.65;7.05;;;;;;;-0.45;100.00;101963.38;5081915;28;20028;-75
2023/01/24 01:37:57;;;;;;;14.57;7.15;;;;;;;0.09;100.00;102117.63;5079724;28;20048;-76
2023/01/24 01:40:23;;;;;;;13.48;7.93;;;;;;;-0.07;100.00;102107.94;5086741;28;20051;-75
2023/01/24 01:42:50;;;;;;;21.60;9.15;;;;;;;-0.32;100.00;102151.72;5086349;28;20051;-75
2023/01/24 01:45:41;;;;;;;11.93;7.13;;;;;;;-0.19;100.00;102153.47;5084978;28;20048;-76
2023/01/24 01:48:17;;;;;;;17.50;6.80;;;;;;;-1.11;100.00;101998.25;5082709;28;20127;-76
2023/01/24 01:50:48;;;;;;;15.15;8.30;;;;;;;-0.20;100.00;102137.91;5078817;28;20033;-76
2023/01/24 01:53:14;;;;;;;15.23;7.47;;;;;;;0.08;100.00;102156.25;5084009;28;20039;-76
2023/01/24 01:55:47;;;;;;;17.02;10.00;;;;;;;-1.17;100.00;101992.69;5084994;28;20518;-77
2023/01/24 01:58:13;;;;;;;19.88;8.40;;;;;;;-0.70;100.00;102032.97;5083736;28;20076;-76
2023/01/24 02:00:38;;;;;;;15.57;7.63;;;;;;;-1.10;100.00;101983.69;5084905;28;20048;-76
2023/01/24 02:05:56;;;;;;;19.08;11.27;;;;;;;-1.14;100.00;101958.53;5081615;28;20043;-77
2023/01/24 02:08:22;;;;;;;13.00;7.43;;;;;;;-0.21;100.00;102103.50;5085612;28;20136;-76
2023/01/24 02:13:38;;;;;;;16.65;10.65;;;;;;;-0.34;100.00;102015.72;5078889;28;20082;-77
2023/01/24 02:16:05;;;;;;;17.30;8.40;;;;;;;-0.13;100.00;102089.44;5080235;28;20084;-76
2023/01/24 02:18:33;;;;;;;16.75;8.93;;;;;;;0.30;100.00;102132.81;5082133;28;20037;-76
2023/01/24 02:20:58;;;;;;;19.38;10.18;;;;;;;-0.29;100.00;101986.88;5083208;28;20487;-77
2023/01/24 02:23:42;;;;;;;15.90;9.32;;;;;;;0.28;100.00;102127.56;5085157;28;20047;-78
2023/01/24 02:26:11;;;;;;;14.38;9.35;;;;;;;0.04;100.00;102131.91;5082278;28;20640;-75
2023/01/24 02:28:40;;;;;;;16.67;10.00;;;;;;;-0.74;100.00;101974.25;5083908;28;20138;-75
2023/01/24 02:31:05;;;;;;;16.50;10.38;;;;;;;-0.47;100.00;101971.03;5082013;28;20193;-75
2023/01/24 02:33:32;;;;;;;21.23;10.52;;;;;;;-0.06;100.00;102096.81;5084535;28;20500;-75
2023/01/24 02:36:26;;;;;;;14.95;8.25;;;;;;;0.50;100.00;102123.88;5083054;28;20040;-75
2023/01/24 02:39:01;;;;;;;15.15;9.00;;;;;;;-0.44;100.00;101973.81;5075431;28;20051;-76
2023/01/24 02:41:31;;;;;;;15.93;9.02;;;;;;;0.24;100.00;102112.66;5089874;28;20035;-76
2023/01/24 02:44:02;;;;;;;16.48;9.25;;;;;;;-0.41;100.00;102016.97;5081475;28;20044;-76
2023/01/24 02:46:36;;;;;;;18.52;10.18;;;;;;;-0.37;100.00;101979.41;5081818;28;20055;-75
2023/01/24 02:49:01;;;;;;;16.60;8.68;;;;;;;-0.19;100.00;101979.75;5084544;28;20104;-78
2023/01/24 02:54:10;;;;;;;16.38;9.38;;;;;;;0.35;100.00;102109.13;5088591;28;20499;-75
2023/01/24 02:59:20;;;;;;;13.82;8.30;;;;;;;0.43;100.00;102158.69;5081039;28;20087;-77
2023/01/24 03:01:45;;;;;;;14.20;9.60;;;;;;;0.73;100.00;102159.91;5082138;28;20064;-77
2023/01/24 03:04:12;;;;;;;18.65;8.98;;;;;;;0.62;100.00;102122.13;5089310;28;20044;-76
2023/01/24 03:06:37;;;;;;;16.40;9.20;;;;;;;-0.01;100.00;102006.84;5086268;28;20128;-76
2023/01/24 03:09:18;;;;;;;13.60;8.60;;;;;;;0.79;100.00;102146.50;5089296;28;20071;-75
2023/01/24 03:11:48;;;;;;;11.75;7.07;;;;;;;0.76;100.00;102166.97;5085185;28;20035;-77
2023/01/24 03:36:13;;;;;;;18.17;7.45;;;;;;;1.02;100.00;102176.47;5084051;28;20079;-75
2023/01/24 03:41:22;;;;;;;12.77;7.88;;;;;;;1.17;100.00;102236.06;5082635;28;20410;-76
2023/01/24 03:43:48;;;;;;;13.20;6.88;;;;;;;1.15;100.00;102248.00;5085212;28;20047;-75
2023/01/24 03:46:13;;;;;;;12.10;6.82;;;;;;;1.16;100.00;102250.69;5084701;28;20084;-76
2023/01/24 03:48:39;;;;;;;9.63;4.95;;;;;;;0.17;100.00;102119.06;5088360;28;20040;-76
2023/01/24 03:53:49;;;;;;;14.30;5.57;;;;;;;1.08;100.00;102280.31;5087322;28;20063;-74
2023/01/24 03:56:14;;;;;;;14.43;7.55;;;;;;;1.07;100.00;102283.66;5085727;28;20035;-75
2023/01/24 03:58:40;;;;;;;15.20;8.50;;;;;;;0.91;100.00;102257.53;5084099;28;20067;-76
2023/01/24 04:01:05;;;;;;;13.43;6.43;;;;;;;0.23;100.00;102148.66;5086143;28;20055;-76
2023/01/24 04:03:32;;;;;;;14.73;7.18;;;;;;;0.93;100.00;102266.31;5088180;28;20127;-76
2023/01/24 04:05:58;;;;;;;13.13;6.65;;;;;;;-0.12;100.00;102150.53;5084235;28;20044;-75
2023/01/24 04:08:24;;;;;;;14.70;8.00;;;;;;;0.81;100.00;102325.78;5085617;28;20487;-76
2023/01/24 04:10:49;;;;;;;12.52;6.85;;;;;;;0.88;100.00;102284.06;5083476;28;20853;-76
2023/01/24 04:13:15;;;;;;;14.05;7.03;;;;;;;0.73;100.00;102319.19;5087902;28;20107;-76
2023/01/24 04:15:40;;;;;;;21.13;6.55;;;;;;;0.51;100.00;102240.16;5085113;28;20461;-76
2023/01/24 04:18:07;;;;;;;14.02;5.65;;;;;;;0.98;100.00;102303.69;5089356;28;20072;-76
2023/01/24 04:20:35;;;;;;;13.02;5.82;;;;;;;1.01;100.00;102303.94;5088510;28;20470;-75
2023/01/24 04:23:06;;;;;;;11.75;5.93;;;;;;;0.91;100.00;102338.56;5084050;28;20048;-76
2023/01/24 04:25:31;;;;;;;15.23;7.95;;;;;;;0.21;100.00;102197.59;5075458;28;20044;-76
2023/01/24 04:27:57;;;;;;;12.75;5.90;;;;;;;0.23;100.00;102188.28;5082501;28;20047;-76
2023/01/24 04:30:22;;;;;;;14.55;7.22;;;;;;;-0.01;100.00;102180.59;5084536;28;20048;-76
2023/01/24 04:32:48;;;;;;;10.52;7.47;;;;;;;0.84;100.00;102307.91;5084739;28;20495;-76
2023/01/24 04:35:20;;;;;;;16.65;7.43;;;;;;;0.28;100.00;102205.03;5084779;28;20032;-76
2023/01/24 04:37:45;;;;;;;10.98;6.00;;;;;;;1.16;100.00;102336.00;5082909;28;20043;-76
2023/01/24 04:40:11;;;;;;;12.38;7.55;;;;;;;0.38;100.00;102191.94;5079730;28;20789;-76
2023/01/24 04:42:40;;;;;;;13.93;6.72;;;;;;;0.56;100.00;102205.25;5087518;28;20047;-76
2023/01/24 04:45:06;;;;;;;11.10;6.43;;;;;;;0.77;100.00;102254.00;5087051;28;20040;-76
2023/01/24 04:47:32;;;;;;;13.13;6.68;;;;;;;0.45;100.00;102187.22;5085265;28;20032;-76
2023/01/24 04:49:57;;;;;;;12.57;6.07;;;;;;;1.28;100.00;102330.78;5087359;28;20047;-75
2023/01/24 04:52:23;;;;;;;18.80;8.38;;;;;;;0.47;100.00;102194.28;5082062;28;20514;-75
2023/01/24 04:54:48;;;;;;;14.93;7.50;;;;;;;1.29;100.00;102329.06;5083703;28;20843;-75
2023/01/24 04:57:14;;;;;;;15.98;9.05;;;;;;;0.89;100.00;102262.63;5075738;28;20116;-75
2023/01/24 04:59:39;;;;;;;16.85;7.25;;;;;;;0.45;100.00;102207.88;5086540;28;20020;-76
2023/01/24 05:02:05;;;;;;;11.23;6.53;;;;;;;1.13;100.00;102332.31;5085968;28;20490;-76
2023/01/24 05:04:30;;;;;;;18.02;8.43;;;;;;;1.40;100.00;102367.81;5084489;28;20048;-76
2023/01/24 05:06:56;;;;;;;10.60;5.63;;;;;;;0.50;100.00;102204.81;5084426;28;20068;-75
2023/01/24 05:09:22;;;;;;;13.35;6.32;;;;;;;1.46;100.00;102376.00;5081123;28;20068;-76
2023/01/24 05:11:47;;;;;;;11.15;6.18;;;;;;;1.51;100.00;102372.84;5084697;28;20042;-76
2023/01/24 05:14:13;;;;;;;18.02;7.05;;;;;;;0.74;100.00;102246.06;5083103;28;20067;-76
2023/01/24 05:16:38;;;;;;;18.83;7.82;;;;;;;1.34;100.00;102389.78;5083786;28;20092;-77
2023/01/24 05:19:05;;;;;;;11.40;6.97;;;;;;;1.43;100.00;102399.09;5081403;28;20395;-76
2023/01/24 05:21:30;;;;;;;12.80;7.22;;;;;;;0.72;100.00;102274.34;5081496;28;20055;-76
2023/01/24 05:23:56;;;;;;;16.92;6.82;;;;;;;0.43;100.00;102246.50;5081859;28;20052;-76
2023/01/24 05:26:24;;;;;;;13.77;7.85;;;;;;;1.39;100.00;102411.69;5078808;28;20028;-75
2023/01/24 05:28:50;;;;;;;13.65;6.40;;;;;;;0.46;100.00;102245.81;5082115;28;20149;-75
2023/01/24 05:31:16;;;;;;;14.30;6.72;;;;;;;1.22;100.00;102390.72;5084616;28;20055;-77
2023/01/24 05:33:42;;;;;;;14.80;8.20;;;;;;;0.46;100.00;102230.31;5080631;28;20054;-75
2023/01/24 05:36:19;;;;;;;14.02;5.53;;;;;;;1.24;100.00;102372.72;5084280;28;20052;-75
2023/01/24 05:38:45;;;;;;;13.50;6.78;;;;;;;1.23;100.00;102363.19;5081145;28;20081;-77
2023/01/24 05:41:13;;;;;;;14.95;8.27;;;;;;;0.55;100.00;102252.53;5086235;28;20032;-75
2023/01/24 05:43:39;;;;;;;15.85;6.78;;;;;;;0.59;100.00;102269.16;5084557;28;20135;-76
2023/01/24 05:46:07;;;;;;;14.27;7.57;;;;;;;1.30;100.00;102406.78;5084490;28;20126;-75
2023/01/24 05:48:33;;;;;;;16.42;8.52;;;;;;;1.14;100.00;102342.75;5081010;28;20181;-75
2023/01/24 05:51:00;;;;;;;13.77;7.63;;;;;;;0.74;100.00;102277.06;5083929;28;20036;-75
2023/01/24 05:53:28;;;;;;;12.32;7.90;;;;;;;1.44;100.00;102397.38;5084808;28;20085;-77
2023/01/24 05:55:58;;;;;;;15.77;6.50;;;;;;;1.30;100.00;102406.78;5077855;28;20036;-78
2023/01/24 05:58:25;;;;;;;12.07;5.70;;;;;;;0.86;100.00;102327.00;5083914;28;20142;-78
2023/01/24 06:00:51;;;;;;;10.48;5.30;;;;;;;0.37;100.00;102265.03;5079810;28;20052;-74
2023/01/24 06:03:17;;;;;;;13.77;6.35;;;;;;;1.41;100.00;102420.47;5077956;28;20115;-76
2023/01/24 06:05:49;;;;;;;16.05;7.32;;;;;;;1.35;100.00;102422.59;5082153;28;20058;-76
2023/01/24 06:08:16;;;;;;;14.77;8.02;;;;;;;0.62;100.00;102277.09;5084753;28;20028;-76
2023/01/24 06:10:42;;;;;;;13.27;6.43;;;;;;;1.50;100.00;102427.94;5087896;28;20052;-76
2023/01/24 06:13:07;;;;;;;17.92;7.35;;;;;;;1.48;100.00;102417.50;5084452;28;20518;-75
2023/01/24 06:15:32;;;;;;;14.02;7.75;;;;;;;1.22;100.00;102377.81;5081621;28;20055;-78
2023/01/24 06:17:58;;;;;;;13.30;6.82;;;;;;;1.16;100.00;102412.66;5082293;28;20158;-76
2023/01/24 06:20:24;;;;;;;22.05;8.63;;;;;;;1.10;100.00;102420.91;5085859;28;20032;-76
2023/01/24 06:23:17;;;;;;;25.95;7.03;;;;;;;0.67;100.00;102308.41;5082934;28;20527;-76
2023/01/24 06:25:43;;;;;;;12.63;5.47;;;;;;;1.40;100.00;102442.81;5082649;28;20044;-74
2023/01/24 06:28:09;;;;;;;11.55;6.68;;;;;;;1.31;100.00;102433.53;5083988;28;20066;-75
2023/01/24 06:30:37;;;;;;;13.65;6.55;;;;;;;1.23;100.00;102399.38;5075439;28;20040;-75
2023/01/24 06:33:15;;;;;;;14.55;7.90;;;;;;;1.60;100.00;102453.69;5075465;28;20118;-76
2023/01/24 06:36:21;;;;;;;18.60;8.50;;;;;;;1.65;100.00;102439.34;5081238;28;20028;-78
2023/01/24 06:38:47;;;;;;;14.27;7.63;;;;;;;0.73;100.00;102285.63;5081725;28;20028;-77
2023/01/24 06:41:17;;;;;;;14.15;6.88;;;;;;;0.77;100.00;102296.28;5084278;28;20019;-80
2023/01/24 06:43:44;;;;;;;13.48;7.88;;;;;;;0.89;100.00;102328.91;5082081;28;20056;-78
2023/01/24 06:46:11;;;;;;;15.90;7.32;;;;;;;1.66;100.00;102428.19;5081109;28;20101;-76
2023/01/24 06:48:37;;;;;;;21.75;7.22;;;;;;;1.70;100.00;102440.56;5083464;28;20056;-79
2023/01/24 06:51:04;;;;;;;13.15;7.20;;;;;;;1.54;100.00;102409.25;5077909;28;20055;-77
2023/01/24 06:53:29;;;;;;;16.20;7.68;;;;;;;0.85;100.00;102304.56;5082831;28;20039;-77
2023/01/24 06:55:55;;;;;;;17.48;8.55;;;;;;;1.63;100.00;102420.25;5082404;28;20118;-76
2023/01/24 06:58:20;;;;;;;16.95;7.80;;;;;;;0.99;100.00;102288.31;5079480;28;20048;-77
2023/01/24 07:00:45;;;;;;;18.98;7.88;;;;;;;1.79;100.00;102448.06;5073970;28;20050;-76
2023/01/24 07:03:11;;;;;;;17.83;6.90;;;;;;;0.97;100.00;102348.44;5076391;28;20067;-76
2023/01/24 07:05:38;;;;;;;18.88;8.93;;;;;;;1.67;100.00;102445.53;5078595;28;20036;-77
2023/01/24 07:08:05;;;;;;;14.55;8.73;;;;;;;1.68;100.00;102455.97;5079605;28;20072;-76
2023/01/24 07:10:31;;;;;;;32.40;9.00;;;;;;;0.94;100.00;102294.84;5079029;28;20134;-77
2023/01/24 07:12:57;;;;;;;27.55;7.72;;;;;;;2.04;100.00;102459.31;5075237;28;20804;-77
2023/01/24 07:15:22;;;;;;;18.98;6.78;;;;;;;1.93;100.00;102457.66;5075440;28;20048;-76
2023/01/24 07:17:48;;;;;;;12.80;6.45;;;;;;;1.03;100.00;102298.06;5077753;28;20035;-76
2023/01/24 07:20:14;;;;;;;15.20;7.60;;;;;;;1.00;100.00;102322.78;5085136;28;20853;-76
2023/01/24 07:22:42;;;;;;;16.58;7.68;;;;;;;1.16;100.00;102329.94;5086690;28;20052;-75
2023/01/24 07:25:17;;;;;;;20.15;7.97;;;;;;;2.08;100.00;102462.97;5081587;28;20059;-76
2023/01/24 07:27:43;;;;;;;11.45;6.57;;;;;;;1.79;100.00;102425.66;5082498;28;20100;-76
2023/01/24 07:30:10;;;;;;;38.63;11.27;;;;;;;1.36;100.00;102396.88;5075797;28;20069;-76
2023/01/24 07:32:36;;;;;;;20.50;8.57;;;;;;;1.27;100.00;102329.00;5084229;28;20060;-75
2023/01/24 07:35:02;;;;;;;20.88;7.10;;;;;;;1.09;100.00;102318.28;5085120;28;20070;-76
2023/01/24 07:37:29;;;;;;;23.30;9.07;;;;;;;1.85;100.00;102436.44;5079710;28;20044;-77
2023/01/24 07:39:54;;;;;;;13.02;6.93;;;;;;;2.08;100.00;102461.31;5080114;28;20229;-76
2023/01/24 07:42:20;;;;;;;11.50;6.50;;;;;;;2.07;100.00;102448.25;5080256;28;20415;-77
2023/01/24 07:44:45;;;;;;;17.15;7.47;;;;;;;1.05;100.00;102374.03;5077703;28;20047;-76
2023/01/24 07:47:11;;;;;;;16.70;7.47;;;;;;;0.94;100.00;102306.88;5079926;28;20446;-77
2023/01/24 07:49:36;;;;;;;12.95;5.63;;;;;;;2.02;100.00;102460.88;5074200;28;20048;-76
2023/01/24 07:52:02;;;;;;;12.32;7.38;;;;;;;1.26;100.00;102325.50;5076899;28;20052;-76
2023/01/24 07:54:27;;;;;;;12.38;5.70;;;;;;;1.82;100.00;102431.03;5072699;28;20059;-78
2023/01/24 07:56:53;;;;;;;10.13;5.53;;;;;;;1.18;100.00;102349.94;5071111;28;20040;-78
2023/01/24 07:59:18;;;;;;;12.70;7.40;;;;;;;1.13;100.00;102330.63;5079595;28;20028;-79
2023/01/24 08:01:43;;;;;;;13.25;5.60;;;;;;;2.03;100.00;102482.50;5081542;28;20480;-75
2023/01/24 08:04:09;;;;;;;11.85;5.88;;;;;;;1.10;100.00;102335.59;5079497;28;20527;-76
2023/01/24 08:06:35;;;;;;;17.27;6.93;;;;;;;1.52;100.00;102378.09;5073992;28;20044;-76
2023/01/24 08:09:00;;;;;;;11.57;5.97;;;;;;;1.38;100.00;102436.66;5076475;28;20131;-77
2023/01/24 08:11:26;;;;;;;11.05;5.53;;;;;;;0.35;100.00;102203.72;5076466;28;20045;-75
2023/01/24 08:13:51;;;;;;;11.68;5.07;;;;;;;1.52;100.00;102392.72;5076211;28;20064;-77
2023/01/24 08:16:17;;;;;;;13.27;6.72;;;;;;;0.56;100.00;102254.34;5077884;28;20048;-80
2023/01/24 08:18:44;;;;;;;11.48;4.97;;;;;;;1.73;100.00;102451.13;5075469;28;20463;-76
2023/01/24 08:21:09;;;;;;;13.95;5.13;;;;;;;1.71;100.00;102480.28;5082197;28;20488;-76
2023/01/24 08:23:35;;;;;;;9.98;5.13;;;;;;;1.21;100.00;102458.72;5079390;28;20063;-76
2023/01/24 08:26:02;;;;;;;16.45;6.25;;;;;;;1.39;100.00;102490.19;5079544;28;20044;-76
2023/01/24 08:28:27;;;;;;;11.45;5.07;;;;;;;1.32;100.00;102441.41;5075134;28;20058;-76
2023/01/24 08:30:53;;;;;;;10.65;5.55;;;;;;;1.89;100.00;102473.78;5081228;28;20411;-75
2023/01/24 08:33:18;;;;;;;9.57;5.53;;;;;;;0.69;100.00;102364.56;5076438;28;20097;-77
2023/01/24 08:35:48;;;;;;;16.83;6.05;;;;;;;1.42;100.00;102437.75;5065739;28;20048;-76
2023/01/24 08:38:15;;;;;;;11.40;5.22;;;;;;;1.97;100.00;102505.38;5078381;28;20044;-76
2023/01/24 08:40:41;;;;;;;9.93;5.45;;;;;;;1.94;100.00;102505.16;5069725;28;20060;-77
2023/01/24 08:43:07;;;;;;;11.18;4.72;;;;;;;1.70;100.00;102492.31;5073240;28;20040;-77
2023/01/24 08:45:33;;;;;;;9.50;5.90;;;;;;;1.08;100.00;102355.25;5077135;28;20048;-77
2023/01/24 08:47:59;;;;;;;16.02;5.43;;;;;;;1.15;100.00;102356.59;5077229;28;20051;-78
2023/01/24 08:50:25;;;;;;;19.67;6.65;;;;;;;1.75;100.00;102493.53;5077553;28;20055;-75
2023/01/24 08:52:54;;;;;;;15.93;5.05;;;;;;;1.13;100.00;102384.03;5086913;28;21118;-77
2023/01/24 08:55:20;;;;;;;11.57;4.68;;;;;;;1.78;100.00;102470.47;5076737;28;20040;-77
2023/01/24 08:57:45;;;;;;;8.80;4.88;;;;;;;1.15;100.00;102321.28;5078832;28;20060;-76
2023/01/24 09:00:11;;;;;;;9.40;4.32;;;;;;;1.18;100.00;102339.59;5075682;28;20139;-78
2023/01/24 09:02:38;;;;;;;7.50;3.97;;;;;;;1.73;100.00;102489.03;5079854;28;20040;-75
2023/01/24 09:05:05;;;;;;;8.45;3.65;;;;;;;1.87;100.00;102486.63;5082147;28;20048;-75
2023/01/24 09:07:31;;;;;;;11.13;5.00;;;;;;;2.10;100.00;102485.59;5074415;28;20051;-77
2023/01/24 09:09:56;;;;;;;7.47;3.55;;;;;;;1.93;100.00;102490.44;5079013;28;20028;-77
2023/01/24 09:12:22;;;;;;;8.00;3.33;;;;;;;1.83;100.00;102487.22;5075658;28;20056;-76
2023/01/24 09:14:47;;;;;;;9.38;4.75;;;;;;;1.35;100.00;102345.03;5076203;28;20054;-76
2023/01/24 09:17:13;;;;;;;9.68;3.67;;;;;;;1.55;100.00;102444.69;5077926;28;20040;-76
2023/01/24 09:19:38;;;;;;;5.22;3.42;;;;;;;1.67;100.00;102481.75;5080971;28;20032;-77
2023/01/24 09:22:04;;;;;;;6.97;3.60;;;;;;;1.87;100.00;102485.72;5079124;28;20067;-76
2023/01/24 09:24:29;;;;;;;9.82;5.07;;;;;;;1.09;100.00;102332.88;5080115;28;20048;-75
2023/01/24 09:26:56;;;;;;;14.77;8.38;;;;;;;0.79;100.00;102255.00;5078155;28;20400;-75
2023/01/24 09:29:21;;;;;;;8.75;5.13;;;;;;;1.79;100.00;102407.56;5079630;28;20191;-75
2023/01/24 09:31:48;;;;;;;9.38;4.10;;;;;;;1.35;100.00;102391.56;5081438;28;20869;-75
2023/01/24 09:34:13;;;;;;;12.00;6.35;;;;;;;1.15;100.00;102374.69;5076771;28;20036;-75
2023/01/24 09:36:39;;;;;;;13.13;5.45;;;;;;;2.10;100.00;102483.00;5077895;28;20222;-76
2023/01/24 09:39:04;;;;;;;14.88;5.53;;;;;;;1.96;100.00;102437.16;5079866;28;20130;-75
2023/01/24 09:41:56;;;;;;;12.68;3.67;;;;;;;2.11;100.00;102452.84;5073160;28;20052;-75
2023/01/24 09:44:37;;;;;;;7.63;5.50;;;;;;;1.43;100.00;102320.59;5050801;28;20083;-75
2023/01/24 09:47:15;;;;;;;10.25;5.07;;;;;;;1.51;100.00;102316.81;5079062;28;20500;-76
2023/01/24 09:49:52;;;;;;;13.88;6.10;;;;;;;1.53;100.00;102366.97;5072116;28;20095;-75
2023/01/24 09:52:27;;;;;;;10.13;4.55;;;;;;;2.29;100.00;102471.28;5085988;28;20028;-75
2023/01/24 09:54:55;;;;;;;10.90;3.33;;;;;;;2.28;100.00;102472.09;5077990;28;20063;-74
2023/01/24 09:57:54;;;;;;;18.15;5.78;;;;;;;2.29;100.00;102474.81;5070437;28;20139;-74
2023/01/24 10:00:26;;;;;;;5.85;3.63;;;;;;;1.77;100.00;102379.78;5065089;28;20048;-74
2023/01/24 10:02:55;;;;;;;7.57;4.25;;;;;;;2.20;100.00;102471.59;5078923;28;20040;-74
2023/01/24 10:05:24;;;;;;;10.38;6.10;;;;;;;2.02;100.00;102470.34;5072616;28;20048;-75
2023/01/24 10:08:04;;;;;;;13.45;5.18;;;;;;;2.08;100.00;102463.91;5071532;28;20173;-75
2023/01/24 10:10:51;;;;;;;26.52;6.30;;;;;;;1.89;100.00;102469.50;5073560;28;20039;-75
2023/01/24 10:13:25;;;;;;;7.80;4.68;;;;;;;2.07;100.00;102467.25;5071512;28;20052;-75
2023/01/24 10:15:57;;;;;;;7.38;3.92;;;;;;;1.84;100.00;102465.69;5075986;28;20055;-80
2023/01/24 10:18:34;;;;;;;10.20;5.80;;;;;;;1.95;100.00;102470.72;5073775;28;20044;-78
2023/01/24 10:21:18;;;;;;;9.10;3.92;;;;;;;1.51;100.00;102342.69;5073629;28;20072;-77
2023/01/24 10:23:50;;;;;;;15.82;7.82;;;;;;;1.58;100.00;102421.63;5085415;28;20040;-79
2023/01/24 10:26:27;;;;;;;14.10;8.02;;;;;;;1.61;100.00;102451.16;5077098;28;20064;-78
2023/01/24 10:28:55;;;;;;;10.60;5.57;;;;;;;1.55;100.00;102429.19;5068290;28;20040;-78
2023/01/24 10:31:28;;;;;;;9.65;4.95;;;;;;;1.48;100.00;102453.72;5079829;28;20093;-79
2023/01/24 10:34:29;;;;;;;8.25;3.67;;;;;;;1.63;100.00;102446.13;5075684;28;20223;-79
2023/01/24 10:37:00;;;;;;;8.85;3.50;;;;;;;0.86;100.00;102292.50;5041605;28;20056;-76
2023/01/24 10:39:27;;;;;;;5.72;3.20;;;;;;;1.67;100.00;102415.38;5074440;28;20052;-78
2023/01/24 10:41:53;;;;;;;5.70;2.88;;;;;;;1.31;100.00;102390.47;5070667;28;20538;-79
2023/01/24 10:44:26;;;;;;;7.18;3.38;;;;;;;1.59;100.00;102405.28;5069143;28;20044;-75
2023/01/24 10:47:04;;;;;;;12.13;3.72;;;;;;;1.89;100.00;102433.25;5075187;28;20052;-81
2023/01/24 10:49:35;;;;;;;6.75;3.58;;;;;;;1.20;100.00;102291.47;5069089;28;20346;-78
2023/01/24 10:52:18;;;;;;;7.93;3.65;;;;;;;2.10;100.00;102436.38;5071727;28;20110;-80
2023/01/24 10:54:56;;;;;;;5.17;3.07;;;;;;;1.36;100.00;102292.50;5070459;28;20101;-76
2023/01/24 10:57:31;;;;;;;5.57;2.38;;;;;;;2.18;100.00;102433.41;5077175;28;20503;-76
2023/01/24 11:00:05;;;;;;;5.93;2.95;;;;;;;1.79;100.00;102425.66;5076995;28;20066;-79
2023/01/24 11:02:34;;;;;;;4.63;2.65;;;;;;;1.98;100.00;102430.41;5083596;28;20062;-76
2023/01/24 11:05:04;;;;;;;10.35;3.38;;;;;;;1.89;100.00;102386.66;5078166;28;20408;-75
2023/01/24 11:07:38;;;;;;;8.32;4.75;;;;;;;1.97;100.00;102423.44;5077974;28;20426;-75
2023/01/24 11:10:24;;;;;;;7.53;3.47;;;;;;;1.93;100.00;102424.03;5080065;28;20138;-77
2023/01/24 11:12:58;;;;;;;10.32;5.05;;;;;;;1.65;100.00;102330.69;5078889;28;20351;-76
2023/01/24 11:15:33;;;;;;;7.80;3.55;;;;;;;2.26;100.00;102415.00;5079029;28;20063;-74
2023/01/24 11:18:10;;;;;;;5.00;3.10;;;;;;;1.37;100.00;102357.25;5073395;28;20043;-76
2023/01/24 11:20:36;;;;;;;7.68;3.30;;;;;;;1.26;100.00;102342.69;5072236;28;20079;-76
2023/01/24 11:23:06;;;;;;;6.47;2.75;;;;;;;1.23;100.00;102371.81;5080988;28;20102;-76
2023/01/24 11:25:32;;;;;;;7.15;2.92;;;;;;;0.71;100.00;102256.19;5085990;28;20024;-77
2023/01/24 11:28:00;;;;;;;5.18;3.03;;;;;;;1.99;100.00;102413.16;5081230;28;20055;-75
2023/01/24 11:30:28;;;;;;;4.90;1.83;;;;;;;0.47;100.00;102261.44;5088829;28;20073;-76
2023/01/24 11:33:13;;;;;;;13.63;3.47;;;;;;;1.52;100.00;102403.06;5088358;28;20507;-76
2023/01/24 11:35:48;;;;;;;5.25;2.53;;;;;;;0.61;100.00;102259.81;5085184;28;20051;-76
2023/01/24 11:38:34;;;;;;;7.60;3.50;;;;;;;0.83;100.00;102251.88;5085587;28;20051;-76
2023/01/24 11:41:20;;;;;;;6.40;3.13;;;;;;;2.04;100.00;102396.28;5083781;28;20044;-75
2023/01/24 11:43:57;;;;;;;11.32;4.30;;;;;;;2.10;100.00;102407.00;5084898;28;20483;-76
2023/01/24 11:46:28;;;;;;;5.97;2.72;;;;;;;2.08;100.00;102396.59;5087472;28;20093;-76
2023/01/24 11:49:02;;;;;;;7.00;4.00;;;;;;;2.04;100.00;102388.50;5085442;28;20055;-76
2023/01/24 11:52:12;;;;;;;8.23;5.00;;;;;;;1.53;100.00;102392.84;5087158;28;20496;-76
2023/01/24 11:55:02;;;;;;;11.35;5.07;;;;;;;1.58;100.00;102393.16;5054816;28;20155;-76
2023/01/24 11:58:02;;;;;;;9.50;4.57;;;;;;;0.81;100.00;102256.91;5073097;28;20773;-79
2023/01/24 12:00:34;;;;;;;11.68;6.82;;;;;;;1.69;100.00;102393.09;5083232;28;20060;-77
2023/01/24 12:03:15;;;;;;;10.48;3.28;;;;;;;1.76;100.00;102407.34;5085358;28;20048;-78